Matrah, Oman
Current Conditions -  °F | °C
As of 2:50 AM on Friday 28 Nov 2014 (Local Time) from OOMS Reporting Station
Clear Clear  
Wind Chill: 79°   Ceiling: Unl
Heat Index: 79°   Visibility: 6mi
Dew Point: 50°   Wind: 8mph
Humidity: 36%   Direction: 220°SW
Pressure: 29.91"   Gusts: NA
Location:  23.61°N, 58.54°E
Report Text: OOMS 272250Z 22007KT CAVOK 26/10 Q1013 NOSIG
Loading
Personal Weather Stations






























Interactive Weather Map New forecast layout! Learn more

10-Day Weather Forecast

Advertisements
Track Severe Weather on mobile